sensor_id;sensor_type;location;lat;lon;timestamp;P1;durP1;ratioP1;P2;durP2;ratioP2
495;SDS011;39559;48.630;9.162;2023-04-20T00:00:28;8.73;;;5.72;;
495;SDS011;39559;48.630;9.162;2023-04-20T00:02:55;6.32;;;5.55;;
495;SDS011;39559;48.630;9.162;2023-04-20T00:07:23;5.65;;;5.03;;
495;SDS011;39559;48.630;9.162;2023-04-20T00:09:49;5.53;;;4.93;;
495;SDS011;39559;48.630;9.162;2023-04-20T00:12:15;7.20;;;5.53;;
495;SDS011;39559;48.630;9.162;2023-04-20T00:14:40;8.30;;;5.87;;
495;SDS011;39559;48.630;9.162;2023-04-20T00:17:06;31.50;;;9.60;;
495;SDS011;39559;48.630;9.162;2023-04-20T00:19:32;25.67;;;8.70;;
495;SDS011;39559;48.630;9.162;2023-04-20T00:21:58;19.00;;;8.67;;
495;SDS011;39559;48.630;9.162;2023-04-20T00:24:24;8.35;;;6.68;;
495;SDS011;39559;48.630;9.162;2023-04-20T00:26:49;8.90;;;6.37;;
495;SDS011;39559;48.630;9.162;2023-04-20T00:31:23;6.28;;;5.50;;
495;SDS011;39559;48.630;9.162;2023-04-20T00:33:49;7.40;;;5.47;;
495;SDS011;39559;48.630;9.162;2023-04-20T00:36:14;7.50;;;5.10;;
495;SDS011;39559;48.630;9.162;2023-04-20T00:38:40;7.40;;;5.80;;
495;SDS011;39559;48.630;9.162;2023-04-20T00:41:07;8.05;;;6.03;;
495;SDS011;39559;48.630;9.162;2023-04-20T00:43:34;8.50;;;5.95;;
495;SDS011;39559;48.630;9.162;2023-04-20T00:46:00;7.68;;;5.65;;
495;SDS011;39559;48.630;9.162;2023-04-20T00:48:28;7.20;;;5.85;;
495;SDS011;39559;48.630;9.162;2023-04-20T00:50:53;8.57;;;6.17;;
495;SDS011;39559;48.630;9.162;2023-04-20T00:55:23;6.90;;;5.57;;
495;SDS011;39559;48.630;9.162;2023-04-20T00:57:49;6.70;;;4.85;;
495;SDS011;39559;48.630;9.162;2023-04-20T01:00:16;6.15;;;5.50;;
495;SDS011;39559;48.630;9.162;2023-04-20T01:02:41;7.73;;;6.00;;
495;SDS011;39559;48.630;9.162;2023-04-20T01:05:07;7.00;;;5.70;;
495;SDS011;39559;48.630;9.162;2023-04-20T01:07:33;5.53;;;4.80;;
495;SDS011;39559;48.630;9.162;2023-04-20T01:09:59;9.00;;;6.13;;
495;SDS011;39559;48.630;9.162;2023-04-20T01:12:24;7.93;;;6.30;;
495;SDS011;39559;48.630;9.162;2023-04-20T01:14:50;7.33;;;6.63;;
495;SDS011;39559;48.630;9.162;2023-04-20T01:19:24;5.95;;;5.25;;
495;SDS011;39559;48.630;9.162;2023-04-20T01:21:49;7.13;;;5.40;;
495;SDS011;39559;48.630;9.162;2023-04-20T01:24:15;6.47;;;5.80;;
495;SDS011;39559;48.630;9.162;2023-04-20T01:26:40;10.37;;;4.70;;
495;SDS011;39559;48.630;9.162;2023-04-20T01:29:06;8.43;;;5.57;;
495;SDS011;39559;48.630;9.162;2023-04-20T01:31:31;7.40;;;6.70;;
495;SDS011;39559;48.630;9.162;2023-04-20T01:33:57;8.90;;;6.23;;
495;SDS011;39559;48.630;9.162;2023-04-20T01:36:22;9.27;;;5.97;;
495;SDS011;39559;48.630;9.162;2023-04-20T01:38:48;9.20;;;6.73;;
495;SDS011;39559;48.630;9.162;2023-04-20T01:43:24;5.78;;;5.28;;
495;SDS011;39559;48.630;9.162;2023-04-20T01:45:50;7.00;;;5.33;;
495;SDS011;39559;48.630;9.162;2023-04-20T01:48:15;6.77;;;6.13;;
495;SDS011;39559;48.630;9.162;2023-04-20T01:50:41;7.13;;;6.17;;
495;SDS011;39559;48.630;9.162;2023-04-20T01:53:07;6.93;;;5.80;;
495;SDS011;39559;48.630;9.162;2023-04-20T01:55:32;8.90;;;6.80;;
495;SDS011;39559;48.630;9.162;2023-04-20T01:57:58;29.58;;;10.90;;
495;SDS011;39559;48.630;9.162;2023-04-20T02:00:24;5.47;;;4.90;;
495;SDS011;39559;48.630;9.162;2023-04-20T02:02:50;10.27;;;6.30;;
495;SDS011;39559;48.630;9.162;2023-04-20T02:07:24;10.13;;;6.43;;
495;SDS011;39559;48.630;9.162;2023-04-20T02:09:50;5.80;;;5.30;;
495;SDS011;39559;48.630;9.162;2023-04-20T02:12:16;5.73;;;5.07;;
495;SDS011;39559;48.630;9.162;2023-04-20T02:14:42;6.53;;;5.37;;
495;SDS011;39559;48.630;9.162;2023-04-20T02:17:07;6.38;;;5.55;;
495;SDS011;39559;48.630;9.162;2023-04-20T02:19:33;8.77;;;6.67;;
495;SDS011;39559;48.630;9.162;2023-04-20T02:21:59;6.20;;;5.60;;
495;SDS011;39559;48.630;9.162;2023-04-20T02:24:25;8.40;;;6.10;;
495;SDS011;39559;48.630;9.162;2023-04-20T02:26:50;6.90;;;5.80;;
495;SDS011;39559;48.630;9.162;2023-04-20T02:31:25;6.78;;;5.45;;
495;SDS011;39559;48.630;9.162;2023-04-20T02:33:51;7.70;;;5.83;;
495;SDS011;39559;48.630;9.162;2023-04-20T02:36:17;6.60;;;5.65;;
495;SDS011;39559;48.630;9.162;2023-04-20T02:38:43;10.13;;;5.43;;
495;SDS011;39559;48.630;9.162;2023-04-20T02:41:10;6.32;;;5.57;;
495;SDS011;39559;48.630;9.162;2023-04-20T02:43:37;5.60;;;5.10;;
495;SDS011;39559;48.630;9.162;2023-04-20T02:46:04;7.18;;;5.20;;
495;SDS011;39559;48.630;9.162;2023-04-20T02:48:31;8.65;;;6.07;;
495;SDS011;39559;48.630;9.162;2023-04-20T02:50:57;6.05;;;5.45;;
495;SDS011;39559;48.630;9.162;2023-04-20T02:55:27;5.82;;;5.15;;
495;SDS011;39559;48.630;9.162;2023-04-20T02:57:55;6.15;;;5.50;;
495;SDS011;39559;48.630;9.162;2023-04-20T03:00:22;8.48;;;5.55;;
495;SDS011;39559;48.630;9.162;2023-04-20T03:02:50;8.48;;;5.75;;
495;SDS011;39559;48.630;9.162;2023-04-20T03:05:18;6.45;;;5.75;;
495;SDS011;39559;48.630;9.162;2023-04-20T03:07:45;10.15;;;6.38;;
495;SDS011;39559;48.630;9.162;2023-04-20T03:10:11;7.85;;;5.70;;
495;SDS011;39559;48.630;9.162;2023-04-20T03:12:51;8.43;;;5.30;;
495;SDS011;39559;48.630;9.162;2023-04-20T03:15:18;10.07;;;7.10;;
495;SDS011;39559;48.630;9.162;2023-04-20T03:19:29;5.57;;;5.00;;
495;SDS011;39559;48.630;9.162;2023-04-20T03:21:56;6.25;;;5.00;;
495;SDS011;39559;48.630;9.162;2023-04-20T03:24:23;6.53;;;5.47;;
495;SDS011;39559;48.630;9.162;2023-04-20T03:26:49;6.95;;;5.93;;
495;SDS011;39559;48.630;9.162;2023-04-20T03:29:16;7.13;;;5.28;;
495;SDS011;39559;48.630;9.162;2023-04-20T03:31:43;6.18;;;5.22;;
495;SDS011;39559;48.630;9.162;2023-04-20T03:34:10;8.05;;;5.70;;
495;SDS011;39559;48.630;9.162;2023-04-20T03:36:36;9.07;;;6.15;;
495;SDS011;39559;48.630;9.162;2023-04-20T03:39:03;9.77;;;6.18;;
495;SDS011;39559;48.630;9.162;2023-04-20T03:43:32;6.82;;;5.20;;
495;SDS011;39559;48.630;9.162;2023-04-20T03:45:59;7.22;;;5.97;;
495;SDS011;39559;48.630;9.162;2023-04-20T03:48:26;6.65;;;5.97;;
495;SDS011;39559;48.630;9.162;2023-04-20T03:50:53;7.70;;;6.15;;
495;SDS011;39559;48.630;9.162;2023-04-20T03:53:19;7.15;;;5.53;;
495;SDS011;39559;48.630;9.162;2023-04-20T03:55:46;6.45;;;5.85;;
495;SDS011;39559;48.630;9.162;2023-04-20T03:58:13;8.27;;;6.07;;
495;SDS011;39559;48.630;9.162;2023-04-20T04:00:39;5.82;;;5.32;;
495;SDS011;39559;48.630;9.162;2023-04-20T04:03:05;5.90;;;5.30;;
495;SDS011;39559;48.630;9.162;2023-04-20T04:07:29;6.05;;;5.40;;
495;SDS011;39559;48.630;9.162;2023-04-20T04:09:55;6.80;;;4.93;;
495;SDS011;39559;48.630;9.162;2023-04-20T04:12:20;10.07;;;6.47;;
495;SDS011;39559;48.630;9.162;2023-04-20T04:14:46;9.77;;;6.97;;
495;SDS011;39559;48.630;9.162;2023-04-20T04:17:14;7.07;;;5.30;;
495;SDS011;39559;48.630;9.162;2023-04-20T04:19:40;7.63;;;5.65;;
495;SDS011;39559;48.630;9.162;2023-04-20T04:22:07;6.28;;;5.68;;
495;SDS011;39559;48.630;9.162;2023-04-20T04:24:33;7.23;;;5.60;;
495;SDS011;39559;48.630;9.162;2023-04-20T04:26:58;6.07;;;5.47;;
495;SDS011;39559;48.630;9.162;2023-04-20T04:31:30;6.47;;;4.82;;
495;SDS011;39559;48.630;9.162;2023-04-20T04:33:57;6.55;;;5.43;;
495;SDS011;39559;48.630;9.162;2023-04-20T04:36:22;7.10;;;4.97;;
495;SDS011;39559;48.630;9.162;2023-04-20T04:38:51;5.97;;;5.32;;
495;SDS011;39559;48.630;9.162;2023-04-20T04:41:17;10.32;;;7.15;;
495;SDS011;39559;48.630;9.162;2023-04-20T04:43:43;12.20;;;6.60;;
495;SDS011;39559;48.630;9.162;2023-04-20T04:46:10;7.25;;;6.40;;
495;SDS011;39559;48.630;9.162;2023-04-20T04:51:45;10.60;;;6.00;;
495;SDS011;39559;48.630;9.162;2023-04-20T04:55:31;7.35;;;5.68;;
495;SDS011;39559;48.630;9.162;2023-04-20T04:57:57;7.43;;;6.63;;
495;SDS011;39559;48.630;9.162;2023-04-20T05:00:41;10.43;;;7.53;;
495;SDS011;39559;48.630;9.162;2023-04-20T05:03:07;7.15;;;6.38;;
495;SDS011;39559;48.630;9.162;2023-04-20T05:05:33;8.03;;;5.83;;
495;SDS011;39559;48.630;9.162;2023-04-20T05:07:58;11.33;;;6.83;;
495;SDS011;39559;48.630;9.162;2023-04-20T05:10:24;7.93;;;6.27;;
495;SDS011;39559;48.630;9.162;2023-04-20T05:12:50;8.37;;;6.07;;
495;SDS011;39559;48.630;9.162;2023-04-20T05:15:16;11.68;;;6.82;;
495;SDS011;39559;48.630;9.162;2023-04-20T05:19:33;9.57;;;5.97;;
495;SDS011;39559;48.630;9.162;2023-04-20T05:21:58;9.73;;;6.80;;
495;SDS011;39559;48.630;9.162;2023-04-20T05:24:24;10.17;;;8.03;;
495;SDS011;39559;48.630;9.162;2023-04-20T05:26:50;7.40;;;6.35;;
495;SDS011;39559;48.630;9.162;2023-04-20T05:29:15;7.97;;;6.23;;
495;SDS011;39559;48.630;9.162;2023-04-20T05:31:41;9.57;;;7.77;;
495;SDS011;39559;48.630;9.162;2023-04-20T05:34:07;7.97;;;6.73;;
495;SDS011;39559;48.630;9.162;2023-04-20T05:36:32;9.30;;;7.20;;
495;SDS011;39559;48.630;9.162;2023-04-20T05:38:59;8.23;;;7.20;;
495;SDS011;39559;48.630;9.162;2023-04-20T05:43:37;8.35;;;6.55;;
495;SDS011;39559;48.630;9.162;2023-04-20T05:46:03;8.48;;;7.05;;
495;SDS011;39559;48.630;9.162;2023-04-20T05:48:32;13.68;;;9.15;;
495;SDS011;39559;48.630;9.162;2023-04-20T05:51:00;11.27;;;8.07;;
495;SDS011;39559;48.630;9.162;2023-04-20T05:53:26;12.00;;;8.70;;
495;SDS011;39559;48.630;9.162;2023-04-20T05:55:54;11.63;;;8.17;;
495;SDS011;39559;48.630;9.162;2023-04-20T05:58:20;15.25;;;8.50;;
495;SDS011;39559;48.630;9.162;2023-04-20T06:00:48;11.50;;;7.53;;
495;SDS011;39559;48.630;9.162;2023-04-20T06:03:14;9.05;;;7.38;;
495;SDS011;39559;48.630;9.162;2023-04-20T06:07:38;10.20;;;8.35;;
495;SDS011;39559;48.630;9.162;2023-04-20T06:10:05;9.40;;;8.50;;
495;SDS011;39559;48.630;9.162;2023-04-20T06:12:35;11.07;;;8.13;;
495;SDS011;39559;48.630;9.162;2023-04-20T06:15:03;13.10;;;7.65;;
495;SDS011;39559;48.630;9.162;2023-04-20T06:17:35;12.68;;;7.95;;
495;SDS011;39559;48.630;9.162;2023-04-20T06:20:07;9.10;;;7.65;;
495;SDS011;39559;48.630;9.162;2023-04-20T06:22:35;9.30;;;7.07;;
495;SDS011;39559;48.630;9.162;2023-04-20T06:25:04;11.35;;;8.25;;
495;SDS011;39559;48.630;9.162;2023-04-20T06:27:30;10.07;;;7.40;;
495;SDS011;39559;48.630;9.162;2023-04-20T06:31:38;18.73;;;9.10;;
495;SDS011;39559;48.630;9.162;2023-04-20T06:34:05;11.20;;;8.80;;
495;SDS011;39559;48.630;9.162;2023-04-20T06:36:32;11.98;;;8.30;;
495;SDS011;39559;48.630;9.162;2023-04-20T06:38:59;12.18;;;8.32;;
495;SDS011;39559;48.630;9.162;2023-04-20T06:41:25;15.07;;;10.68;;
495;SDS011;39559;48.630;9.162;2023-04-20T06:43:51;19.17;;;12.73;;
495;SDS011;39559;48.630;9.162;2023-04-20T06:46:17;15.13;;;11.37;;
495;SDS011;39559;48.630;9.162;2023-04-20T06:48:45;14.82;;;10.82;;
495;SDS011;39559;48.630;9.162;2023-04-20T06:51:12;14.35;;;9.90;;
495;SDS011;39559;48.630;9.162;2023-04-20T06:55:41;16.35;;;9.20;;
495;SDS011;39559;48.630;9.162;2023-04-20T06:58:08;10.10;;;8.68;;
495;SDS011;39559;48.630;9.162;2023-04-20T07:00:35;12.65;;;8.77;;
495;SDS011;39559;48.630;9.162;2023-04-20T07:03:01;10.70;;;8.05;;
495;SDS011;39559;48.630;9.162;2023-04-20T07:05:27;13.40;;;8.13;;
495;SDS011;39559;48.630;9.162;2023-04-20T07:07:53;12.27;;;8.97;;
495;SDS011;39559;48.630;9.162;2023-04-20T07:10:20;13.32;;;8.95;;
495;SDS011;39559;48.630;9.162;2023-04-20T07:12:47;11.90;;;8.40;;
495;SDS011;39559;48.630;9.162;2023-04-20T07:15:15;10.05;;;8.80;;
495;SDS011;39559;48.630;9.162;2023-04-20T07:19:38;11.32;;;8.30;;
495;SDS011;39559;48.630;9.162;2023-04-20T07:22:06;12.48;;;9.82;;
495;SDS011;39559;48.630;9.162;2023-04-20T07:24:33;12.65;;;8.80;;
495;SDS011;39559;48.630;9.162;2023-04-20T07:27:00;10.85;;;8.65;;
495;SDS011;39559;48.630;9.162;2023-04-20T07:29:45;9.55;;;7.90;;
495;SDS011;39559;48.630;9.162;2023-04-20T07:32:13;12.10;;;8.73;;
495;SDS011;39559;48.630;9.162;2023-04-20T07:34:39;11.25;;;8.20;;
495;SDS011;39559;48.630;9.162;2023-04-20T07:37:06;11.20;;;8.40;;
495;SDS011;39559;48.630;9.162;2023-04-20T07:39:34;13.27;;;7.80;;
495;SDS011;39559;48.630;9.162;2023-04-20T07:43:43;12.77;;;9.52;;
495;SDS011;39559;48.630;9.162;2023-04-20T07:46:09;12.67;;;9.03;;
495;SDS011;39559;48.630;9.162;2023-04-20T07:48:35;12.87;;;8.60;;
495;SDS011;39559;48.630;9.162;2023-04-20T07:51:01;11.75;;;9.35;;
495;SDS011;39559;48.630;9.162;2023-04-20T07:53:29;13.47;;;9.87;;
495;SDS011;39559;48.630;9.162;2023-04-20T07:55:55;11.93;;;9.07;;
495;SDS011;39559;48.630;9.162;2023-04-20T07:58:21;13.40;;;9.40;;
495;SDS011;39559;48.630;9.162;2023-04-20T08:00:47;12.07;;;9.30;;
495;SDS011;39559;48.630;9.162;2023-04-20T08:03:13;12.47;;;9.13;;
495;SDS011;39559;48.630;9.162;2023-04-20T08:07:43;11.57;;;8.80;;
495;SDS011;39559;48.630;9.162;2023-04-20T08:10:09;13.20;;;8.50;;
495;SDS011;39559;48.630;9.162;2023-04-20T08:12:35;13.70;;;8.93;;
495;SDS011;39559;48.630;9.162;2023-04-20T08:15:01;10.43;;;8.80;;
495;SDS011;39559;48.630;9.162;2023-04-20T08:17:29;15.35;;;9.32;;
495;SDS011;39559;48.630;9.162;2023-04-20T08:19:55;11.50;;;8.10;;
495;SDS011;39559;48.630;9.162;2023-04-20T08:22:20;10.70;;;9.00;;
495;SDS011;39559;48.630;9.162;2023-04-20T08:24:48;13.60;;;9.20;;
495;SDS011;39559;48.630;9.162;2023-04-20T08:27:14;11.33;;;7.80;;
495;SDS011;39559;48.630;9.162;2023-04-20T08:31:44;13.20;;;9.38;;
495;SDS011;39559;48.630;9.162;2023-04-20T08:34:10;12.20;;;9.40;;
495;SDS011;39559;48.630;9.162;2023-04-20T08:36:36;11.80;;;8.60;;
495;SDS011;39559;48.630;9.162;2023-04-20T08:39:05;12.10;;;9.30;;
495;SDS011;39559;48.630;9.162;2023-04-20T08:41:36;12.40;;;9.20;;
495;SDS011;39559;48.630;9.162;2023-04-20T08:44:02;13.83;;;9.97;;
495;SDS011;39559;48.630;9.162;2023-04-20T08:46:29;11.98;;;9.60;;
495;SDS011;39559;48.630;9.162;2023-04-20T08:48:58;12.35;;;9.07;;
495;SDS011;39559;48.630;9.162;2023-04-20T08:51:25;14.13;;;9.18;;
495;SDS011;39559;48.630;9.162;2023-04-20T08:55:47;15.40;;;9.00;;
495;SDS011;39559;48.630;9.162;2023-04-20T08:58:14;14.88;;;10.27;;
495;SDS011;39559;48.630;9.162;2023-04-20T09:00:47;15.15;;;9.18;;
495;SDS011;39559;48.630;9.162;2023-04-20T09:03:13;11.10;;;8.52;;
495;SDS011;39559;48.630;9.162;2023-04-20T09:05:39;12.77;;;9.17;;
495;SDS011;39559;48.630;9.162;2023-04-20T09:08:05;12.52;;;9.60;;
495;SDS011;39559;48.630;9.162;2023-04-20T09:10:39;14.75;;;10.30;;
495;SDS011;39559;48.630;9.162;2023-04-20T09:13:08;12.25;;;8.90;;
495;SDS011;39559;48.630;9.162;2023-04-20T09:15:34;14.60;;;9.88;;
495;SDS011;39559;48.630;9.162;2023-04-20T09:19:51;19.58;;;9.77;;
495;SDS011;39559;48.630;9.162;2023-04-20T09:22:28;15.35;;;9.18;;
495;SDS011;39559;48.630;9.162;2023-04-20T09:24:55;12.68;;;9.23;;
495;SDS011;39559;48.630;9.162;2023-04-20T09:27:21;13.33;;;9.20;;
495;SDS011;39559;48.630;9.162;2023-04-20T09:30:08;13.65;;;9.00;;
495;SDS011;39559;48.630;9.162;2023-04-20T09:32:34;9.77;;;7.70;;
495;SDS011;39559;48.630;9.162;2023-04-20T09:35:00;17.27;;;9.10;;
495;SDS011;39559;48.630;9.162;2023-04-20T09:37:26;12.38;;;8.05;;
495;SDS011;39559;48.630;9.162;2023-04-20T09:39:52;12.47;;;8.57;;
495;SDS011;39559;48.630;9.162;2023-04-20T09:43:48;11.90;;;8.90;;
495;SDS011;39559;48.630;9.162;2023-04-20T09:46:14;9.50;;;7.57;;
495;SDS011;39559;48.630;9.162;2023-04-20T09:48:41;12.35;;;8.10;;
495;SDS011;39559;48.630;9.162;2023-04-20T09:51:06;12.20;;;8.50;;
495;SDS011;39559;48.630;9.162;2023-04-20T09:53:32;8.97;;;6.90;;
495;SDS011;39559;48.630;9.162;2023-04-20T09:55:59;13.88;;;8.60;;
495;SDS011;39559;48.630;9.162;2023-04-20T09:58:26;9.80;;;8.13;;
495;SDS011;39559;48.630;9.162;2023-04-20T10:00:53;9.50;;;8.10;;
495;SDS011;39559;48.630;9.162;2023-04-20T10:03:19;9.73;;;8.03;;
495;SDS011;39559;48.630;9.162;2023-04-20T10:07:57;11.20;;;7.78;;
495;SDS011;39559;48.630;9.162;2023-04-20T10:10:24;11.80;;;6.75;;
495;SDS011;39559;48.630;9.162;2023-04-20T10:12:51;11.77;;;8.30;;
495;SDS011;39559;48.630;9.162;2023-04-20T10:15:18;11.35;;;7.88;;
495;SDS011;39559;48.630;9.162;2023-04-20T10:17:48;10.10;;;8.90;;
495;SDS011;39559;48.630;9.162;2023-04-20T10:22:51;10.93;;;7.75;;
495;SDS011;39559;48.630;9.162;2023-04-20T10:25:21;15.77;;;8.00;;
495;SDS011;39559;48.630;9.162;2023-04-20T10:27:54;14.77;;;8.85;;
495;SDS011;39559;48.630;9.162;2023-04-20T10:31:50;8.23;;;6.55;;
495;SDS011;39559;48.630;9.162;2023-04-20T10:34:16;10.88;;;7.53;;
495;SDS011;39559;48.630;9.162;2023-04-20T10:36:43;12.23;;;7.25;;
495;SDS011;39559;48.630;9.162;2023-04-20T10:39:12;9.70;;;7.50;;
495;SDS011;39559;48.630;9.162;2023-04-20T10:41:51;9.32;;;6.93;;
495;SDS011;39559;48.630;9.162;2023-04-20T10:44:19;11.35;;;7.93;;
495;SDS011;39559;48.630;9.162;2023-04-20T10:46:48;10.43;;;7.70;;
495;SDS011;39559;48.630;9.162;2023-04-20T10:49:14;12.40;;;8.45;;
495;SDS011;39559;48.630;9.162;2023-04-20T10:51:48;11.43;;;8.30;;
495;SDS011;39559;48.630;9.162;2023-04-20T10:55:56;7.78;;;6.97;;
495;SDS011;39559;48.630;9.162;2023-04-20T10:58:23;10.00;;;7.53;;
495;SDS011;39559;48.630;9.162;2023-04-20T11:01:02;12.65;;;8.80;;
495;SDS011;39559;48.630;9.162;2023-04-20T11:03:29;10.57;;;7.63;;
495;SDS011;39559;48.630;9.162;2023-04-20T11:05:59;12.45;;;7.80;;
495;SDS011;39559;48.630;9.162;2023-04-20T11:08:41;9.75;;;7.20;;
495;SDS011;39559;48.630;9.162;2023-04-20T11:11:20;8.57;;;6.50;;
495;SDS011;39559;48.630;9.162;2023-04-20T11:13:51;7.97;;;6.63;;
495;SDS011;39559;48.630;9.162;2023-04-20T11:16:18;9.63;;;6.70;;
495;SDS011;39559;48.630;9.162;2023-04-20T11:19:51;9.25;;;6.78;;
495;SDS011;39559;48.630;9.162;2023-04-20T11:22:20;11.30;;;7.67;;
495;SDS011;39559;48.630;9.162;2023-04-20T11:24:47;7.82;;;6.63;;
495;SDS011;39559;48.630;9.162;2023-04-20T11:27:19;12.63;;;8.07;;
495;SDS011;39559;48.630;9.162;2023-04-20T11:29:55;10.23;;;6.93;;
495;SDS011;39559;48.630;9.162;2023-04-20T11:32:28;13.07;;;8.00;;
495;SDS011;39559;48.630;9.162;2023-04-20T11:34:58;11.25;;;7.10;;
495;SDS011;39559;48.630;9.162;2023-04-20T11:37:32;9.90;;;7.55;;
495;SDS011;39559;48.630;9.162;2023-04-20T11:39:59;8.75;;;6.85;;
495;SDS011;39559;48.630;9.162;2023-04-20T11:43:51;9.82;;;7.45;;
495;SDS011;39559;48.630;9.162;2023-04-20T11:46:18;10.75;;;6.95;;
495;SDS011;39559;48.630;9.162;2023-04-20T11:48:45;10.60;;;6.57;;
495;SDS011;39559;48.630;9.162;2023-04-20T11:51:11;10.93;;;7.38;;
495;SDS011;39559;48.630;9.162;2023-04-20T11:53:38;8.73;;;7.75;;
495;SDS011;39559;48.630;9.162;2023-04-20T11:56:05;9.75;;;7.22;;
495;SDS011;39559;48.630;9.162;2023-04-20T11:58:30;9.20;;;6.70;;
495;SDS011;39559;48.630;9.162;2023-04-20T12:00:56;8.87;;;7.00;;
495;SDS011;39559;48.630;9.162;2023-04-20T12:03:22;7.50;;;6.50;;
495;SDS011;39559;48.630;9.162;2023-04-20T12:07:52;8.60;;;6.53;;
495;SDS011;39559;48.630;9.162;2023-04-20T12:10:18;10.90;;;7.00;;
495;SDS011;39559;48.630;9.162;2023-04-20T12:12:43;8.83;;;7.10;;
495;SDS011;39559;48.630;9.162;2023-04-20T12:15:09;9.87;;;7.10;;
495;SDS011;39559;48.630;9.162;2023-04-20T12:17:35;11.13;;;6.67;;
495;SDS011;39559;48.630;9.162;2023-04-20T12:20:01;10.13;;;6.77;;
495;SDS011;39559;48.630;9.162;2023-04-20T12:22:26;8.40;;;6.40;;
495;SDS011;39559;48.630;9.162;2023-04-20T12:24:52;8.83;;;6.17;;
495;SDS011;39559;48.630;9.162;2023-04-20T12:27:18;7.57;;;6.57;;
495;SDS011;39559;48.630;9.162;2023-04-20T12:31:52;8.30;;;5.40;;
495;SDS011;39559;48.630;9.162;2023-04-20T12:34:18;7.53;;;5.70;;
495;SDS011;39559;48.630;9.162;2023-04-20T12:36:43;6.20;;;5.00;;
495;SDS011;39559;48.630;9.162;2023-04-20T12:39:09;9.80;;;5.97;;
495;SDS011;39559;48.630;9.162;2023-04-20T12:41:36;8.50;;;5.80;;
495;SDS011;39559;48.630;9.162;2023-04-20T12:44:01;7.77;;;5.90;;
495;SDS011;39559;48.630;9.162;2023-04-20T12:46:27;9.40;;;5.90;;
495;SDS011;39559;48.630;9.162;2023-04-20T12:48:53;8.77;;;6.53;;
495;SDS011;39559;48.630;9.162;2023-04-20T12:51:18;7.20;;;6.20;;
495;SDS011;39559;48.630;9.162;2023-04-20T12:55:53;7.50;;;5.90;;
495;SDS011;39559;48.630;9.162;2023-04-20T12:58:18;7.70;;;5.60;;
495;SDS011;39559;48.630;9.162;2023-04-20T13:00:44;7.73;;;6.33;;
495;SDS011;39559;48.630;9.162;2023-04-20T13:03:10;19.50;;;7.00;;
495;SDS011;39559;48.630;9.162;2023-04-20T13:05:36;6.33;;;5.63;;
495;SDS011;39559;48.630;9.162;2023-04-20T13:08:01;7.90;;;6.30;;
495;SDS011;39559;48.630;9.162;2023-04-20T13:10:27;9.10;;;6.60;;
495;SDS011;39559;48.630;9.162;2023-04-20T13:12:53;7.90;;;6.77;;
495;SDS011;39559;48.630;9.162;2023-04-20T13:15:18;7.60;;;5.60;;
495;SDS011;39559;48.630;9.162;2023-04-20T13:19:53;8.52;;;7.13;;
495;SDS011;39559;48.630;9.162;2023-04-20T13:22:18;9.40;;;6.53;;
495;SDS011;39559;48.630;9.162;2023-04-20T13:24:44;11.03;;;7.37;;
495;SDS011;39559;48.630;9.162;2023-04-20T13:27:10;7.20;;;6.47;;
495;SDS011;39559;48.630;9.162;2023-04-20T13:29:36;8.80;;;6.43;;
495;SDS011;39559;48.630;9.162;2023-04-20T13:32:02;7.53;;;6.22;;
495;SDS011;39559;48.630;9.162;2023-04-20T13:34:28;9.70;;;6.60;;
495;SDS011;39559;48.630;9.162;2023-04-20T13:36:54;12.50;;;8.10;;
495;SDS011;39559;48.630;9.162;2023-04-20T13:39:19;7.47;;;6.67;;
495;SDS011;39559;48.630;9.162;2023-04-20T13:43:53;10.13;;;6.30;;
495;SDS011;39559;48.630;9.162;2023-04-20T13:46:18;9.93;;;6.40;;
495;SDS011;39559;48.630;9.162;2023-04-20T13:48:44;14.10;;;8.00;;
495;SDS011;39559;48.630;9.162;2023-04-20T13:51:10;12.63;;;7.37;;
495;SDS011;39559;48.630;9.162;2023-04-20T13:53:36;12.07;;;6.73;;
495;SDS011;39559;48.630;9.162;2023-04-20T13:56:01;10.57;;;6.47;;
495;SDS011;39559;48.630;9.162;2023-04-20T13:58:28;11.18;;;6.47;;
495;SDS011;39559;48.630;9.162;2023-04-20T14:00:53;8.73;;;6.20;;
495;SDS011;39559;48.630;9.162;2023-04-20T14:03:19;9.50;;;7.27;;
495;SDS011;39559;48.630;9.162;2023-04-20T14:07:54;7.18;;;6.45;;
495;SDS011;39559;48.630;9.162;2023-04-20T14:10:19;7.80;;;7.00;;
495;SDS011;39559;48.630;9.162;2023-04-20T14:12:45;8.67;;;7.30;;
495;SDS011;39559;48.630;9.162;2023-04-20T14:15:11;10.10;;;6.80;;
495;SDS011;39559;48.630;9.162;2023-04-20T14:17:38;10.13;;;7.45;;
495;SDS011;39559;48.630;9.162;2023-04-20T14:20:03;8.77;;;6.90;;
495;SDS011;39559;48.630;9.162;2023-04-20T14:22:30;8.77;;;6.70;;
495;SDS011;39559;48.630;9.162;2023-04-20T14:25:00;11.88;;;6.95;;
495;SDS011;39559;48.630;9.162;2023-04-20T14:27:26;8.88;;;6.75;;
495;SDS011;39559;48.630;9.162;2023-04-20T14:31:53;10.15;;;7.65;;
495;SDS011;39559;48.630;9.162;2023-04-20T14:34:19;9.90;;;6.80;;
495;SDS011;39559;48.630;9.162;2023-04-20T14:36:45;7.13;;;6.43;;
495;SDS011;39559;48.630;9.162;2023-04-20T14:39:10;7.97;;;6.70;;
495;SDS011;39559;48.630;9.162;2023-04-20T14:41:36;10.23;;;7.33;;
495;SDS011;39559;48.630;9.162;2023-04-20T14:44:04;13.90;;;7.65;;
495;SDS011;39559;48.630;9.162;2023-04-20T14:46:30;7.77;;;6.53;;
495;SDS011;39559;48.630;9.162;2023-04-20T14:48:56;9.50;;;6.53;;
495;SDS011;39559;48.630;9.162;2023-04-20T14:51:21;8.70;;;7.63;;
495;SDS011;39559;48.630;9.162;2023-04-20T14:55:53;11.05;;;7.47;;
495;SDS011;39559;48.630;9.162;2023-04-20T14:58:19;11.63;;;7.60;;
495;SDS011;39559;48.630;9.162;2023-04-20T15:00:45;9.70;;;7.17;;
495;SDS011;39559;48.630;9.162;2023-04-20T15:03:13;9.43;;;6.70;;
495;SDS011;39559;48.630;9.162;2023-04-20T15:05:40;10.55;;;6.80;;
495;SDS011;39559;48.630;9.162;2023-04-20T15:08:05;16.20;;;7.60;;
495;SDS011;39559;48.630;9.162;2023-04-20T15:10:31;8.50;;;6.90;;
495;SDS011;39559;48.630;9.162;2023-04-20T15:12:57;10.40;;;6.73;;
495;SDS011;39559;48.630;9.162;2023-04-20T15:15:22;8.67;;;7.50;;
495;SDS011;39559;48.630;9.162;2023-04-20T15:19:53;11.82;;;7.82;;
495;SDS011;39559;48.630;9.162;2023-04-20T15:22:18;11.07;;;8.00;;
495;SDS011;39559;48.630;9.162;2023-04-20T15:24:44;8.93;;;6.73;;
495;SDS011;39559;48.630;9.162;2023-04-20T15:27:10;10.10;;;7.80;;
495;SDS011;39559;48.630;9.162;2023-04-20T15:29:35;14.57;;;8.20;;
495;SDS011;39559;48.630;9.162;2023-04-20T15:32:01;11.10;;;7.40;;
495;SDS011;39559;48.630;9.162;2023-04-20T15:34:27;11.77;;;8.25;;
495;SDS011;39559;48.630;9.162;2023-04-20T15:36:53;11.93;;;8.10;;
495;SDS011;39559;48.630;9.162;2023-04-20T15:39:19;10.60;;;8.27;;
495;SDS011;39559;48.630;9.162;2023-04-20T15:43:53;10.80;;;7.30;;
495;SDS011;39559;48.630;9.162;2023-04-20T15:46:18;8.57;;;7.20;;
495;SDS011;39559;48.630;9.162;2023-04-20T15:48:53;11.15;;;8.45;;
495;SDS011;39559;48.630;9.162;2023-04-20T15:51:20;12.02;;;8.15;;
495;SDS011;39559;48.630;9.162;2023-04-20T15:53:46;10.57;;;7.83;;
495;SDS011;39559;48.630;9.162;2023-04-20T15:56:15;12.70;;;8.95;;
495;SDS011;39559;48.630;9.162;2023-04-20T15:58:42;12.60;;;7.78;;
495;SDS011;39559;48.630;9.162;2023-04-20T16:01:09;12.63;;;8.95;;
495;SDS011;39559;48.630;9.162;2023-04-20T16:03:35;12.00;;;8.70;;
495;SDS011;39559;48.630;9.162;2023-04-20T16:07:53;13.20;;;9.88;;
495;SDS011;39559;48.630;9.162;2023-04-20T16:10:22;10.32;;;8.55;;
495;SDS011;39559;48.630;9.162;2023-04-20T16:12:48;12.10;;;9.33;;
495;SDS011;39559;48.630;9.162;2023-04-20T16:15:14;14.40;;;9.80;;
495;SDS011;39559;48.630;9.162;2023-04-20T16:17:40;11.60;;;8.25;;
495;SDS011;39559;48.630;9.162;2023-04-20T16:20:06;16.53;;;9.17;;
495;SDS011;39559;48.630;9.162;2023-04-20T16:22:33;12.75;;;9.02;;
495;SDS011;39559;48.630;9.162;2023-04-20T16:24:59;14.73;;;9.73;;
495;SDS011;39559;48.630;9.162;2023-04-20T16:27:24;17.40;;;10.73;;
495;SDS011;39559;48.630;9.162;2023-04-20T16:31:52;11.43;;;8.70;;